createdAt,value
2023-05-08T00:01:27.042Z,13.9
2023-05-08T00:03:28.711Z,13.9
2023-05-08T00:05:29.905Z,13.9
2023-05-08T00:07:31.336Z,13.9
2023-05-08T00:11:34.154Z,13.9
2023-05-08T00:13:35.593Z,13.9
2023-05-08T00:17:41.814Z,13.8
2023-05-08T00:31:55.031Z,13.6
2023-05-08T00:33:56.421Z,13.6
2023-05-08T00:34:58.775Z,13.6
2023-05-08T00:37:00.203Z,13.6
2023-05-08T00:39:01.644Z,13.5
2023-05-08T00:41:03.106Z,13.5
2023-05-08T00:43:07.783Z,13.5
2023-05-08T00:45:09.199Z,13.5
2023-05-08T00:47:10.592Z,13.5
2023-05-08T00:49:12.001Z,13.4
2023-05-08T00:51:13.423Z,13.4
2023-05-08T00:55:16.270Z,13.4
2023-05-08T00:57:21.025Z,13.4
2023-05-08T00:59:22.453Z,13.4
2023-05-08T01:07:28.146Z,13.2
2023-05-08T01:11:34.296Z,13.1
2023-05-08T01:15:37.115Z,13
2023-05-08T01:17:38.619Z,13
2023-05-08T01:19:40.000Z,12.9
2023-05-08T01:23:42.888Z,12.9
2023-05-08T01:25:47.573Z,12.9
2023-05-08T01:27:48.976Z,12.9
2023-05-08T01:30:52.807Z,12.9
2023-05-08T01:32:54.267Z,12.9
2023-05-08T01:34:55.650Z,12.9
2023-05-08T01:36:57.047Z,12.8
2023-05-08T01:39:01.788Z,12.8
2023-05-08T01:41:03.199Z,12.7
2023-05-08T01:43:04.617Z,12.7
2023-05-08T01:45:06.048Z,12.6
2023-05-08T01:47:07.589Z,12.6
2023-05-08T01:49:08.958Z,12.5
2023-05-08T01:51:10.365Z,12.4
2023-05-08T01:53:15.125Z,12.3
2023-05-08T01:57:18.015Z,12.2
2023-05-08T01:59:19.391Z,12.3
2023-05-08T02:01:20.954Z,12.3
2023-05-08T02:03:22.368Z,12.3
2023-05-08T02:05:23.710Z,12.3
2023-05-08T02:07:28.446Z,12.1
2023-05-08T02:09:29.852Z,12.1
2023-05-08T02:11:31.272Z,12.1
2023-05-08T02:13:32.758Z,12
2023-05-08T02:15:34.162Z,12
2023-05-08T02:17:35.589Z,12.1
2023-05-08T02:19:37.018Z,12.1
2023-05-08T02:21:41.707Z,12.1
2023-05-08T02:23:43.132Z,12
2023-05-08T02:25:44.593Z,12.1
2023-05-08T02:26:46.957Z,12.1
2023-05-08T02:53:12.186Z,12.2
2023-05-08T02:55:13.616Z,12.2
2023-05-08T02:57:15.046Z,12.2
2023-05-08T02:59:16.465Z,12.2
2023-05-08T03:07:25.486Z,12.3
2023-05-08T03:09:26.946Z,12.2
2023-05-08T03:11:28.347Z,12.3
2023-05-08T03:17:35.959Z,12.3
2023-05-08T03:19:37.408Z,12.2
2023-05-08T03:21:38.828Z,12.3
2023-05-08T03:34:19.693Z,12.1
2023-05-08T03:46:31.593Z,12
2023-05-08T03:52:35.856Z,12
2023-05-08T03:56:38.705Z,12
2023-05-08T04:00:44.892Z,12
2023-05-08T04:02:46.333Z,12
2023-05-08T04:04:47.764Z,12
2023-05-08T04:06:50.779Z,12
2023-05-08T04:08:50.615Z,12
2023-05-08T04:10:52.055Z,12
2023-05-08T04:12:56.854Z,11.9
2023-05-08T04:14:58.196Z,11.8
2023-05-08T04:24:06.344Z,11.6
2023-05-08T04:38:19.649Z,11.7
2023-05-08T04:40:24.357Z,11.7
2023-05-08T04:42:25.799Z,11.7
2023-05-08T04:46:28.661Z,11.8
2023-05-08T04:56:39.083Z,12.3
2023-05-08T04:58:40.471Z,12.3
2023-05-08T05:02:43.393Z,12.9
2023-05-08T05:04:44.762Z,13.3
2023-05-08T05:06:46.174Z,13.5
2023-05-08T05:08:50.876Z,13.9
2023-05-08T05:10:52.327Z,14
2023-05-08T05:12:53.816Z,14.1
2023-05-08T05:13:56.135Z,14.3
2023-05-08T05:30:11.049Z,15.3
2023-05-08T05:32:12.257Z,15.4
2023-05-08T05:34:13.686Z,15.4
2023-05-08T05:36:18.429Z,15.8
2023-05-08T05:38:19.835Z,16.1
2023-05-08T05:40:21.252Z,16.2
2023-05-08T05:42:22.672Z,16.6
2023-05-08T05:44:24.094Z,16.7
2023-05-08T05:46:25.570Z,16.4
2023-05-08T05:48:26.954Z,16.1
2023-05-08T05:50:31.714Z,16.4
2023-05-08T05:52:33.089Z,16.1
2023-05-08T05:54:34.546Z,16.6
2023-05-08T05:56:35.981Z,16.5
2023-05-08T06:00:38.804Z,17
2023-05-08T06:04:44.937Z,17.5
2023-05-08T06:06:46.370Z,17.2
2023-05-08T06:08:47.781Z,16.7
2023-05-08T06:09:50.113Z,16.4
2023-05-08T06:15:54.406Z,15.8
2023-05-08T06:17:59.128Z,16.5
2023-05-08T06:20:00.561Z,17.2
2023-05-08T06:24:03.344Z,18.4
2023-05-08T06:34:13.699Z,17.9
2023-05-08T06:38:16.535Z,18.6
2023-05-08T06:42:19.302Z,17.5
2023-05-08T06:46:25.473Z,16.5
2023-05-08T06:50:28.220Z,18.1
2023-05-08T06:52:29.605Z,18.2
2023-05-08T06:54:31.003Z,18.4
2023-05-08T06:56:32.400Z,18.7
2023-05-08T06:58:33.817Z,19.2
2023-05-08T07:02:39.943Z,19.7
2023-05-08T07:04:41.293Z,19.2
2023-05-08T07:23:23.795Z,17.3
2023-05-08T07:25:25.117Z,17
2023-05-08T07:27:29.852Z,16.7
2023-05-08T07:29:31.119Z,16.9
2023-05-08T07:31:32.521Z,17
2023-05-08T07:33:33.765Z,16.9
2023-05-08T07:35:35.040Z,16.8
2023-05-08T07:37:36.306Z,16.7
2023-05-08T07:39:37.609Z,16.7
2023-05-08T07:41:42.310Z,17
2023-05-08T07:43:43.560Z,17
2023-05-08T07:45:44.950Z,17.2
2023-05-08T07:51:48.857Z,18.4
2023-05-08T07:53:50.221Z,18.3
2023-05-08T07:55:54.833Z,18.5
2023-05-08T07:57:56.185Z,18.6
2023-05-08T07:59:57.499Z,18.5
2023-05-08T08:00:59.825Z,18.6
2023-05-08T08:09:08.413Z,19.1
2023-05-08T08:21:16.183Z,18.5
2023-05-08T08:23:20.822Z,19.1
2023-05-08T08:25:22.082Z,19
2023-05-08T08:27:23.373Z,19.4
2023-05-08T08:29:24.788Z,19.1
2023-05-08T08:31:25.958Z,18.8
2023-05-08T08:33:27.145Z,18.4
2023-05-08T08:37:32.840Z,18
2023-05-08T08:39:34.084Z,17.9
2023-05-08T08:41:35.362Z,17.7
2023-05-08T08:56:50.049Z,18.1
2023-05-08T08:58:51.356Z,18
2023-05-08T09:00:52.720Z,18.2
2023-05-08T09:02:54.223Z,18.2
2023-05-08T09:06:59.789Z,18.5
2023-05-08T09:09:01.136Z,19.3
2023-05-08T09:13:03.682Z,20
2023-05-08T09:15:05.039Z,19.8
2023-05-08T09:17:06.396Z,20
2023-05-08T09:19:12.734Z,19.9
2023-05-08T09:21:13.670Z,20
2023-05-08T09:23:14.940Z,19.9
2023-05-08T09:25:16.400Z,20.2
2023-05-08T09:27:17.445Z,20.5
2023-05-08T09:29:18.756Z,21.3
2023-05-08T09:31:20.143Z,21.2
2023-05-08T09:33:24.617Z,20.6
2023-05-08T09:35:25.856Z,20.3
2023-05-08T09:39:28.328Z,19.5
2023-05-08T09:43:30.841Z,20.5
2023-05-08T09:52:41.370Z,22.3
2023-05-08T09:54:42.700Z,23
2023-05-08T09:56:44.741Z,23.7
2023-05-08T09:58:45.972Z,23.2
2023-05-08T10:00:50.480Z,22
2023-05-08T10:02:51.706Z,22.5
2023-05-08T10:04:52.916Z,22.6
2023-05-08T10:06:56.468Z,22
2023-05-08T10:08:55.252Z,21.4
2023-05-08T10:10:56.562Z,21.5
2023-05-08T10:12:57.793Z,21.4
2023-05-08T10:15:02.184Z,20.8
2023-05-08T10:17:03.416Z,20.6
2023-05-08T10:19:04.536Z,20.5
2023-05-08T10:23:06.958Z,20.9
2023-05-08T10:25:08.141Z,20.8
2023-05-08T10:27:09.334Z,20.7
2023-05-08T10:31:14.987Z,19.9
2023-05-08T10:33:16.167Z,19.4
2023-05-08T10:35:17.388Z,19.4
2023-05-08T10:37:18.614Z,19.1
2023-05-08T10:39:19.909Z,18.8
2023-05-08T10:41:21.096Z,18.8
2023-05-08T10:43:25.595Z,18.7
2023-05-08T10:45:26.955Z,18.6
2023-05-08T10:47:28.108Z,18.7
2023-05-08T11:04:08.873Z,18.5
2023-05-08T11:18:21.160Z,18.1
2023-05-08T11:32:33.561Z,17.6
2023-05-08T11:34:34.881Z,17.5
2023-05-08T11:36:36.283Z,17.4
2023-05-08T11:42:43.686Z,18
2023-05-08T11:43:45.915Z,18.1
2023-05-08T11:45:47.237Z,18.2
2023-05-08T11:59:59.932Z,19.4
2023-05-08T12:02:08.719Z,19.5
2023-05-08T12:04:02.862Z,19.5
2023-05-08T12:06:07.225Z,19.6
2023-05-08T12:10:09.995Z,19.8
2023-05-08T12:14:12.640Z,20.2
2023-05-08T12:18:15.200Z,19.9
2023-05-08T12:20:19.976Z,19.6
2023-05-08T12:22:20.917Z,19.4
2023-05-08T12:24:22.223Z,19.5
2023-05-08T12:26:23.468Z,19.5
2023-05-08T12:30:26.100Z,19.5
2023-05-08T12:32:29.084Z,19.5
2023-05-08T12:36:33.237Z,19.2
2023-05-08T12:39:36.782Z,19.6
2023-05-08T12:41:38.023Z,19.9
2023-05-08T12:43:39.291Z,20.1
2023-05-08T12:47:45.077Z,20.4
2023-05-08T12:51:47.664Z,20.3
2023-05-08T12:53:48.923Z,20.4
2023-05-08T12:55:50.189Z,20.5
2023-05-08T12:57:51.525Z,20.6
2023-05-08T12:59:53.153Z,21.2
2023-05-08T13:01:57.505Z,21
2023-05-08T13:04:02.196Z,21.1
2023-05-08T13:05:59.908Z,21.3
2023-05-08T13:08:01.160Z,21.6
2023-05-08T13:10:02.483Z,22
2023-05-08T13:12:03.700Z,21.7
2023-05-08T13:14:04.931Z,21.4
2023-05-08T13:16:09.509Z,21
2023-05-08T13:20:11.962Z,20.8
2023-05-08T13:22:13.035Z,20.9
2023-05-08T13:24:14.266Z,21
2023-05-08T13:26:15.486Z,20.6
2023-05-08T13:28:16.692Z,20.7
2023-05-08T13:30:21.120Z,20.8
2023-05-08T13:32:22.393Z,20.8
2023-05-08T13:35:25.888Z,20.8
2023-05-08T13:43:33.972Z,22.6
2023-05-08T13:47:36.459Z,22.7
2023-05-08T13:49:37.626Z,23.1
2023-05-08T13:51:38.867Z,22.9
2023-05-08T13:53:40.077Z,22.8
2023-05-08T13:55:41.270Z,22.4
2023-05-08T13:57:45.575Z,22.7
2023-05-08T14:05:50.326Z,21.2
2023-05-08T14:07:51.554Z,21.1
2023-05-08T14:09:52.715Z,21.1
2023-05-08T14:11:57.179Z,20.4
2023-05-08T14:13:58.354Z,20.2
2023-05-08T14:15:59.576Z,20.3
2023-05-08T14:20:01.942Z,20.1
2023-05-08T14:22:03.139Z,20
2023-05-08T14:24:04.368Z,20
2023-05-08T14:26:08.800Z,20
2023-05-08T14:28:10.009Z,19.9
2023-05-08T14:30:11.568Z,19.9
2023-05-08T14:36:34.430Z,20.1
2023-05-08T14:38:38.831Z,20.1
2023-05-08T14:40:40.102Z,20.2
2023-05-08T14:42:41.341Z,20.2
2023-05-08T14:52:50.884Z,20.1
2023-05-08T14:56:53.464Z,19.9
2023-05-08T14:58:54.797Z,20
2023-05-08T15:02:57.456Z,19.9
2023-05-08T15:04:58.625Z,20
2023-05-08T15:09:06.111Z,20
2023-05-08T15:11:07.351Z,19.9
2023-05-08T15:15:09.856Z,20
2023-05-08T15:19:12.443Z,20.4
2023-05-08T15:21:16.937Z,21.8
2023-05-08T15:28:22.948Z,23.6
2023-05-08T15:30:24.188Z,23.4
2023-05-08T15:32:25.438Z,23.9
2023-05-08T15:34:32.799Z,24.5
2023-05-08T15:36:31.100Z,24.5
2023-05-08T15:38:32.264Z,23.7
2023-05-08T15:40:33.497Z,23.2
2023-05-08T15:42:34.698Z,22.7
2023-05-08T15:44:52.702Z,22.4
2023-05-08T15:46:37.052Z,22
2023-05-08T15:56:46.221Z,21.3
2023-05-08T16:04:54.388Z,20.8
2023-05-08T16:12:59.380Z,20.5
2023-05-08T16:15:00.539Z,20.6
2023-05-08T16:19:06.370Z,21.1
2023-05-08T16:21:07.571Z,21
2023-05-08T16:22:09.813Z,21.1
2023-05-08T16:24:11.129Z,21.1
2023-05-08T16:26:12.448Z,21
2023-05-08T16:28:13.754Z,20.9
2023-05-08T16:30:18.227Z,20.9
2023-05-08T16:36:21.842Z,20.6
2023-05-08T16:40:24.274Z,20.7
2023-05-08T16:42:25.534Z,20.6
2023-05-08T16:44:29.962Z,20.5
2023-05-08T16:48:32.415Z,20.7
2023-05-08T16:50:33.752Z,20.7
2023-05-08T16:54:36.179Z,20.7
2023-05-08T16:56:37.513Z,20.9
2023-05-08T17:02:44.698Z,20.8
2023-05-08T17:08:48.536Z,20.8
2023-05-08T17:10:49.744Z,20.7
2023-05-08T17:12:54.432Z,20.6
2023-05-08T17:14:55.487Z,20.6
2023-05-08T17:16:56.931Z,20.5
2023-05-08T17:17:59.080Z,20.4
2023-05-08T17:20:00.365Z,20.3
2023-05-08T17:26:07.522Z,20.2
2023-05-08T17:28:08.794Z,20.2
2023-05-08T17:30:10.093Z,20
2023-05-08T17:32:11.573Z,20
2023-05-08T17:34:12.780Z,20
2023-05-08T17:36:13.988Z,19.9
2023-05-08T17:40:19.679Z,19.7
2023-05-08T17:42:20.950Z,19.7
2023-05-08T17:44:22.177Z,19.7
2023-05-08T17:46:23.590Z,19.7
2023-05-08T17:48:24.682Z,19.6
2023-05-08T17:50:26.870Z,19.5
2023-05-08T17:52:28.210Z,19.5
2023-05-08T17:54:32.912Z,19.4
2023-05-08T17:56:34.146Z,19.5
2023-05-08T18:08:45.135Z,19.1
2023-05-08T18:12:47.823Z,18.9
2023-05-08T18:15:04.465Z,18.9
2023-05-08T18:17:05.739Z,18.9
2023-05-08T18:19:07.022Z,18.8
2023-05-08T18:21:11.612Z,18.5
2023-05-08T18:23:12.989Z,18.3
2023-05-08T18:25:14.318Z,16.8
2023-05-08T18:27:15.610Z,16.1
2023-05-08T18:29:16.920Z,15.1
2023-05-08T18:31:18.356Z,14.2
2023-05-08T18:33:19.693Z,14
2023-05-08T18:35:24.361Z,14
2023-05-08T18:37:25.800Z,14.1
2023-05-08T18:39:27.183Z,14.1
2023-05-08T18:43:29.966Z,14.5
2023-05-08T18:51:38.928Z,14.6
2023-05-08T18:57:43.140Z,14.7
2023-05-08T19:01:45.987Z,14.6
2023-05-08T19:05:52.129Z,14.7
2023-05-08T19:08:55.901Z,14.7
2023-05-08T19:10:57.344Z,14.7
2023-05-08T19:12:58.808Z,14.7
2023-05-08T19:15:00.195Z,14.8
2023-05-08T19:17:04.955Z,14.8
2023-05-08T19:19:06.378Z,14.8
2023-05-08T19:21:07.786Z,14.8
2023-05-08T19:23:09.210Z,14.8
2023-05-08T19:25:10.620Z,14.8
2023-05-08T19:27:12.080Z,14.9
2023-05-08T19:29:13.501Z,14.9
2023-05-08T19:33:19.627Z,14.9
2023-05-08T19:35:21.132Z,14.9
2023-05-08T19:39:23.940Z,14.9
2023-05-08T19:49:34.349Z,14.8
2023-05-08T19:51:35.819Z,14.8
2023-05-08T19:57:40.091Z,14.8
2023-05-08T19:59:44.815Z,14.6
2023-05-08T20:01:46.273Z,14.4
2023-05-08T20:03:47.764Z,14.7
2023-05-08T20:06:51.462Z,14.7
2023-05-08T20:10:54.346Z,14.7
2023-05-08T20:12:59.091Z,14.7
2023-05-08T20:15:00.501Z,14.8
2023-05-08T20:19:03.348Z,14.8
2023-05-08T20:29:13.758Z,14.7
2023-05-08T20:31:15.219Z,14.7
2023-05-08T20:35:18.069Z,14.6
2023-05-08T20:37:19.449Z,14.7
2023-05-08T20:39:20.861Z,14.6
2023-05-08T20:41:25.576Z,14.6
2023-05-08T20:43:27.016Z,14.6
2023-05-08T20:45:28.388Z,14.6
2023-05-08T20:47:29.897Z,14.7
2023-05-08T20:49:31.230Z,14.6
2023-05-08T20:51:32.690Z,14.6
2023-05-08T20:53:34.148Z,14.6
2023-05-08T20:55:38.843Z,14.6
2023-05-08T20:57:40.232Z,14.7
2023-05-08T20:59:43.253Z,14.7
2023-05-08T21:00:45.543Z,14.7
2023-05-08T21:17:00.355Z,14.8
2023-05-08T21:21:03.107Z,14.8
2023-05-08T21:23:07.883Z,14.8
2023-05-08T21:25:09.271Z,14.7
2023-05-08T21:27:10.710Z,14.7
2023-05-08T21:29:12.147Z,14.7
2023-05-08T21:31:13.594Z,14.8
2023-05-08T21:33:14.968Z,14.7
2023-05-08T21:35:16.592Z,14.7
2023-05-08T21:37:21.111Z,14.7
2023-05-08T21:39:22.572Z,14.7
2023-05-08T21:41:23.968Z,14.7
2023-05-08T21:45:26.878Z,14.7
2023-05-08T21:47:28.375Z,14.8
2023-05-08T21:49:29.659Z,14.7
2023-05-08T21:51:34.419Z,14.7
2023-05-08T21:53:35.811Z,14.7
2023-05-08T21:57:59.773Z,14.5
2023-05-08T22:00:01.220Z,14.5
2023-05-08T22:02:02.682Z,14.5
2023-05-08T22:04:07.369Z,14.5
2023-05-08T22:06:08.764Z,14.4
2023-05-08T22:08:10.215Z,14.5
2023-05-08T22:10:11.615Z,14.5
2023-05-08T22:12:13.054Z,14.4
2023-05-08T22:14:14.517Z,14.4
2023-05-08T22:18:20.615Z,14.3
2023-05-08T22:22:23.461Z,14.3
2023-05-08T22:24:24.891Z,14.3
2023-05-08T22:26:26.312Z,14.3
2023-05-08T22:28:27.706Z,14.3
2023-05-08T22:30:29.142Z,14.2
2023-05-08T22:32:33.951Z,14.2
2023-05-08T22:34:35.347Z,14.1
2023-05-08T22:38:38.168Z,14.1
2023-05-08T22:40:39.606Z,14.1
2023-05-08T22:42:41.021Z,14.1
2023-05-08T22:44:42.486Z,14.2
2023-05-08T22:46:47.298Z,14.1
2023-05-08T22:51:52.422Z,14.2
2023-05-08T22:53:53.823Z,14.2
2023-05-08T22:55:55.251Z,14.2
2023-05-08T23:00:01.373Z,14.3
2023-05-08T23:02:02.821Z,14.2
2023-05-08T23:04:04.256Z,14.2
2023-05-08T23:06:05.640Z,14.2
2023-05-08T23:08:07.091Z,14.2
2023-05-08T23:10:08.489Z,14.2
2023-05-08T23:12:09.919Z,14.2
2023-05-08T23:14:14.642Z,14.2
2023-05-08T23:16:16.098Z,14.2
2023-05-08T23:22:20.343Z,14.2
2023-05-08T23:26:23.184Z,14.2
2023-05-08T23:28:27.923Z,14.2
2023-05-08T23:30:29.401Z,14.2
2023-05-08T23:32:30.828Z,14.3
2023-05-08T23:34:32.200Z,14.3
2023-05-08T23:36:33.632Z,14.2
2023-05-08T23:38:35.051Z,14.2
2023-05-08T23:40:36.510Z,14.2
2023-05-08T23:42:41.256Z,14.1
2023-05-08T23:44:42.632Z,14.1
2023-05-08T23:46:44.149Z,14.1
2023-05-08T23:47:46.508Z,14.2
2023-05-08T23:51:49.256Z,14.1
2023-05-08T23:53:50.704Z,14.1
2023-05-08T23:55:55.407Z,14
2023-05-08T23:57:56.850Z,14
2023-05-08T23:59:58.291Z,14
